Time,TemperatureF,DewpointF,PressureIn,WindDirection,WindDirectionDegrees,WindSpeedMPH,WindSpeedGustMPH,Humidity,HourlyPrecipIn,Conditions,Clouds,dailyrainin,SoftwareType,DateUTC
2013-12-19 00:04:00,36.1,32.6,30.28,WNW,298,0.0,0.0,87,0.00,,,0.00,Wunderground v.1.15,2013-12-19 05:04:00,
2013-12-19 00:08:00,36.0,32.5,30.27,WNW,298,0.0,0.0,87,0.00,,,0.00,Wunderground v.1.15,2013-12-19 05:08:00,
2013-12-19 00:19:00,35.8,32.3,30.27,WNW,298,0.0,0.0,87,0.00,,,0.00,Wunderground v.1.15,2013-12-19 05:19:00,
2013-12-19 00:23:00,35.8,32.3,30.27,WNW,298,0.0,0.0,87,0.00,,,0.00,Wunderground v.1.15,2013-12-19 05:23:00,
2013-12-19 00:33:00,35.7,32.2,30.27,WNW,298,0.0,0.0,87,0.00,,,0.00,Wunderground v.1.15,2013-12-19 05:33:00,
2013-12-19 00:44:00,35.6,32.1,30.28,WNW,298,0.0,0.0,87,0.00,,,0.00,Wunderground v.1.15,2013-12-19 05:44:00,
2013-12-19 00:58:00,35.3,31.8,30.28,WNW,298,0.0,0.0,87,0.00,,,0.00,Wunderground v.1.15,2013-12-19 05:58:00,
2013-12-19 01:13:00,34.9,31.4,30.28,WNW,298,0.0,0.0,87,0.00,,,0.00,Wunderground v.1.15,2013-12-19 06:13:00,
2013-12-19 01:24:00,34.8,31.3,30.28,WNW,298,0.0,0.0,87,0.00,,,0.00,Wunderground v.1.15,2013-12-19 06:24:00,
2013-12-19 01:39:00,34.5,31.0,30.29,WNW,298,0.0,0.0,87,0.00,,,0.00,Wunderground v.1.15,2013-12-19 06:39:00,
2013-12-19 01:53:00,34.2,31.0,30.29,WNW,298,0.0,0.0,88,0.00,,,0.00,Wunderground v.1.15,2013-12-19 06:53:00,
2013-12-19 02:04:00,34.0,30.8,30.29,WNW,298,0.0,0.0,88,0.00,,,0.00,Wunderground v.1.15,2013-12-19 07:04:00,
2013-12-19 02:19:00,33.8,30.6,30.29,WNW,298,0.0,0.0,88,0.00,,,0.00,Wunderground v.1.15,2013-12-19 07:19:00,
2013-12-19 02:33:00,33.6,30.4,30.29,WNW,298,0.0,0.0,88,0.00,,,0.00,Wunderground v.1.15,2013-12-19 07:33:00,
2013-12-19 02:44:00,33.5,30.3,30.30,WNW,298,0.0,0.0,88,0.00,,,0.00,Wunderground v.1.15,2013-12-19 07:44:00,
2013-12-19 02:58:00,33.6,30.7,30.30,WNW,298,0.0,0.0,89,0.00,,,0.00,Wunderground v.1.15,2013-12-19 07:58:00,
2013-12-19 03:13:00,33.8,31.2,30.29,WNW,298,0.0,0.0,90,0.00,,,0.00,Wunderground v.1.15,2013-12-19 08:13:00,
2013-12-19 03:24:00,33.8,31.2,30.30,WNW,298,0.0,0.0,90,0.00,,,0.00,Wunderground v.1.15,2013-12-19 08:24:00,
2013-12-19 03:39:00,33.7,31.1,30.30,WNW,298,0.0,0.0,90,0.00,,,0.00,Wunderground v.1.15,2013-12-19 08:39:00,
2013-12-19 03:53:00,33.7,31.1,30.30,WNW,298,0.0,0.0,90,0.00,,,0.00,Wunderground v.1.15,2013-12-19 08:53:00,
2013-12-19 04:04:00,33.7,31.1,30.30,WNW,298,0.0,0.0,90,0.00,,,0.00,Wunderground v.1.15,2013-12-19 09:04:00,
2013-12-19 04:19:00,33.7,31.1,30.29,WNW,298,0.0,0.0,90,0.00,,,0.00,Wunderground v.1.15,2013-12-19 09:19:00,
2013-12-19 04:33:00,33.4,30.8,30.29,WNW,298,0.0,0.0,90,0.00,,,0.00,Wunderground v.1.15,2013-12-19 09:33:00,
2013-12-19 04:44:00,33.3,30.7,30.29,WNW,298,0.0,0.0,90,0.00,,,0.00,Wunderground v.1.15,2013-12-19 09:44:00,
2013-12-19 04:59:00,33.2,30.9,30.29,WNW,298,0.0,0.0,91,0.00,,,0.00,Wunderground v.1.15,2013-12-19 09:59:00,
2013-12-19 05:08:00,33.0,30.7,30.30,WNW,298,0.0,0.0,91,0.00,,,0.00,Wunderground v.1.15,2013-12-19 10:08:00,
2013-12-19 05:14:00,33.0,30.7,30.30,WNW,298,0.0,0.0,91,0.00,,,0.00,Wunderground v.1.15,2013-12-19 10:14:00,
2013-12-19 05:29:00,32.7,30.4,30.30,WNW,298,0.0,0.0,91,0.00,,,0.00,Wunderground v.1.15,2013-12-19 10:29:00,
2013-12-19 05:43:00,32.6,30.3,30.31,WNW,298,0.0,0.0,91,0.00,,,0.00,Wunderground v.1.15,2013-12-19 10:43:00,
2013-12-19 05:58:00,32.5,30.2,30.31,WNW,298,0.0,0.0,91,0.00,,,0.00,Wunderground v.1.15,2013-12-19 10:58:00,
2013-12-19 06:09:00,32.4,30.1,30.31,WNW,298,0.0,0.0,91,0.00,,,0.00,Wunderground v.1.15,2013-12-19 11:09:00,
2013-12-19 06:24:00,32.4,30.1,30.31,WNW,298,0.0,0.0,91,0.00,,,0.00,Wunderground v.1.15,2013-12-19 11:24:00,
2013-12-19 06:38:00,32.3,30.0,30.31,WNW,298,0.0,0.0,91,0.00,,,0.00,Wunderground v.1.15,2013-12-19 11:38:00,
2013-12-19 06:49:00,32.3,30.0,30.31,WNW,298,0.0,0.0,91,0.00,,,0.00,Wunderground v.1.15,2013-12-19 11:49:00,
2013-12-19 07:04:00,32.2,30.1,30.31,WNW,298,0.0,0.0,92,0.00,,,0.00,Wunderground v.1.15,2013-12-19 12:04:00,
2013-12-19 07:19:00,32.5,30.4,30.31,WNW,298,0.0,0.0,92,0.00,,,0.00,Wunderground v.1.15,2013-12-19 12:19:00,
2013-12-19 07:34:00,32.8,30.7,30.31,WNW,298,0.0,0.0,92,0.00,,,0.00,Wunderground v.1.15,2013-12-19 12:34:00,
2013-12-19 07:48:00,33.3,31.2,30.32,WNW,298,0.0,0.0,92,0.00,,,0.00,Wunderground v.1.15,2013-12-19 12:48:00,
2013-12-19 07:59:00,33.6,31.5,30.32,WNW,298,0.0,0.0,92,0.00,,,0.00,Wunderground v.1.15,2013-12-19 12:59:00,
2013-12-19 08:14:00,35.0,33.2,30.32,WNW,298,0.0,0.0,93,0.00,,,0.00,Wunderground v.1.15,2013-12-19 13:14:00,
2013-12-19 08:29:00,36.7,34.9,30.32,WNW,298,0.0,0.0,93,0.00,,,0.00,Wunderground v.1.15,2013-12-19 13:29:00,
2013-12-19 08:43:00,38.8,36.9,30.33,WNW,298,0.0,0.0,93,0.00,,,0.00,Wunderground v.1.15,2013-12-19 13:43:00,
2013-12-19 08:54:00,40.6,38.7,30.33,WNW,298,0.0,0.0,93,0.00,,,0.00,Wunderground v.1.15,2013-12-19 13:54:00,
2013-12-19 09:09:00,43.4,41.2,30.33,WNW,298,0.0,0.0,92,0.00,,,0.00,Wunderground v.1.15,2013-12-19 14:09:00,
2013-12-19 09:23:00,46.1,42.1,30.33,WNW,297,0.0,0.0,86,0.00,,,0.00,Wunderground v.1.15,2013-12-19 14:23:00,
2013-12-19 09:34:00,48.2,39.9,30.33,WSW,252,2.0,2.0,73,0.00,,,0.00,Wunderground v.1.15,2013-12-19 14:34:00,
2013-12-19 09:49:00,50.2,36.8,30.34,WSW,239,3.0,3.0,60,0.00,,,0.00,Wunderground v.1.15,2013-12-19 14:49:00,
2013-12-19 10:03:00,52.1,35.0,30.34,WSW,239,2.0,2.0,52,0.00,,,0.00,Wunderground v.1.15,2013-12-19 15:03:00,
2013-12-19 10:14:00,53.2,34.0,30.34,SW,215,3.0,3.0,48,0.00,,,0.00,Wunderground v.1.15,2013-12-19 15:14:00,
2013-12-19 10:29:00,54.6,32.5,30.33,SSW,202,3.0,5.0,43,0.00,,,0.00,Wunderground v.1.15,2013-12-19 15:29:00,
2013-12-19 10:44:00,55.7,32.9,30.33,SW,229,4.0,6.0,42,0.00,,,0.00,Wunderground v.1.15,2013-12-19 15:44:00,
2013-12-19 10:58:00,56.3,33.5,30.33,SSW,197,5.0,6.0,42,0.00,,,0.00,Wunderground v.1.15,2013-12-19 15:58:00,
2013-12-19 11:13:00,56.9,32.8,30.33,WSW,254,4.0,4.0,40,0.00,,,0.00,Wunderground v.1.15,2013-12-19 16:13:00,
2013-12-19 11:24:00,57.4,32.6,30.32,SW,232,3.0,3.0,39,0.00,,,0.00,Wunderground v.1.15,2013-12-19 16:24:00,
2013-12-19 11:39:00,58.4,32.9,30.32,SSW,209,4.0,4.0,38,0.00,,,0.00,Wunderground v.1.15,2013-12-19 16:39:00,
2013-12-19 11:53:00,59.4,31.7,30.31,SW,217,4.0,4.0,35,0.00,,,0.00,Wunderground v.1.15,2013-12-19 16:53:00,
2013-12-19 12:08:00,59.9,32.9,30.31,SE,143,3.0,5.0,36,0.00,,,0.00,Wunderground v.1.15,2013-12-19 17:08:00,
2013-12-19 12:19:00,59.9,30.7,30.30,West,262,4.0,4.0,33,0.00,,,0.00,Wunderground v.1.15,2013-12-19 17:19:00,
2013-12-19 12:34:00,60.6,30.6,30.29,SW,229,3.0,3.0,32,0.00,,,0.00,Wunderground v.1.15,2013-12-19 17:34:00,
2013-12-19 12:49:00,61.3,31.9,30.28,SW,235,3.0,5.0,33,0.00,,,0.00,Wunderground v.1.15,2013-12-19 17:49:00,
2013-12-19 13:04:00,61.4,32.8,30.27,SW,229,4.0,4.0,34,0.00,,,0.00,Wunderground v.1.15,2013-12-19 18:04:00,
2013-12-19 13:19:00,61.9,31.7,30.26,SSW,209,5.0,5.0,32,0.00,,,0.00,Wunderground v.1.15,2013-12-19 18:19:00,
2013-12-19 13:23:00,62.1,32.6,30.26,SSW,208,5.0,6.0,33,0.00,,,0.00,Wunderground v.1.15,2013-12-19 18:23:00,
2013-12-19 13:34:00,62.1,34.1,30.26,WSW,257,4.0,4.0,35,0.00,,,0.00,Wunderground v.1.15,2013-12-19 18:34:00,
2013-12-19 13:48:00,62.7,33.2,30.25,SW,227,4.0,5.0,33,0.00,,,0.00,Wunderground v.1.15,2013-12-19 18:48:00,
2013-12-19 14:03:00,63.2,34.3,30.25,WSW,237,4.0,4.0,34,0.00,,,0.00,Wunderground v.1.15,2013-12-19 19:03:00,
2013-12-19 14:14:00,63.6,35.4,30.24,SW,215,2.0,2.0,35,0.00,,,0.00,Wunderground v.1.15,2013-12-19 19:14:00,
2013-12-19 14:29:00,64.0,35.0,30.24,SW,215,3.0,3.0,34,0.00,,,0.00,Wunderground v.1.15,2013-12-19 19:29:00,
2013-12-19 14:43:00,64.0,35.0,30.23,WSW,249,2.0,5.0,34,0.00,,,0.00,Wunderground v.1.15,2013-12-19 19:43:00,
2013-12-19 14:58:00,63.9,34.2,30.23,SW,221,3.0,3.0,33,0.00,,,0.00,Wunderground v.1.15,2013-12-19 19:58:00,
2013-12-19 15:09:00,64.0,37.2,30.23,SSE,165,2.0,2.0,37,0.00,,,0.00,Wunderground v.1.15,2013-12-19 20:09:00,
2013-12-19 15:24:00,63.9,33.4,30.24,WSW,244,5.0,6.0,32,0.00,,,0.00,Wunderground v.1.15,2013-12-19 20:24:00,
2013-12-19 15:38:00,63.0,40.7,30.24,SSW,196,3.0,3.0,44,0.00,,,0.00,Wunderground v.1.15,2013-12-19 20:38:00,
2013-12-19 15:53:00,61.8,40.8,30.24,South,174,5.0,5.0,46,0.00,,,0.00,Wunderground v.1.15,2013-12-19 20:53:00,
2013-12-19 16:04:00,61.1,41.2,30.24,SSE,163,5.0,5.0,48,0.00,,,0.00,Wunderground v.1.15,2013-12-19 21:04:00,
2013-12-19 16:19:00,60.0,41.3,30.24,SSE,163,5.0,5.0,50,0.00,,,0.00,Wunderground v.1.15,2013-12-19 21:19:00,
2013-12-19 16:34:00,59.0,42.4,30.24,South,189,3.0,3.0,54,0.00,,,0.00,Wunderground v.1.15,2013-12-19 21:34:00,
2013-12-19 16:48:00,58.1,42.5,30.24,SSE,160,2.0,6.0,56,0.00,,,0.00,Wunderground v.1.15,2013-12-19 21:48:00,
2013-12-19 17:03:00,57.0,42.8,30.24,SSE,158,4.0,6.0,59,0.00,,,0.00,Wunderground v.1.15,2013-12-19 22:03:00,
2013-12-19 17:14:00,56.2,43.3,30.25,SSE,163,3.0,3.0,62,0.00,,,0.00,Wunderground v.1.15,2013-12-19 22:14:00,
2013-12-19 17:23:00,55.7,43.3,30.25,SSE,165,3.0,3.0,63,0.00,,,0.00,Wunderground v.1.15,2013-12-19 22:23:00,
2013-12-19 17:33:00,55.1,43.1,30.25,SSE,161,3.0,3.0,64,0.00,,,0.00,Wunderground v.1.15,2013-12-19 22:33:00,
2013-12-19 17:44:00,54.6,43.5,30.25,South,176,2.0,2.0,66,0.00,,,0.00,Wunderground v.1.15,2013-12-19 22:44:00,
2013-12-19 17:58:00,53.9,43.6,30.25,SSE,166,2.0,2.0,68,0.00,,,0.00,Wunderground v.1.15,2013-12-19 22:58:00,
2013-12-19 18:13:00,53.2,44.0,30.25,SSE,164,3.0,3.0,71,0.00,,,0.00,Wunderground v.1.15,2013-12-19 23:13:00,
2013-12-19 18:28:00,52.8,44.4,30.25,SSE,155,3.0,4.0,73,0.00,,,0.00,Wunderground v.1.15,2013-12-19 23:28:00,
2013-12-19 18:39:00,52.6,44.2,30.25,SE,140,3.0,3.0,73,0.00,,,0.00,Wunderground v.1.15,2013-12-19 23:39:00,
2013-12-19 18:54:00,52.1,44.4,30.26,SSE,150,1.0,2.0,75,0.00,,,0.00,Wunderground v.1.15,2013-12-19 23:54:00,
2013-12-19 19:09:00,51.8,44.1,30.26,SSE,150,0.0,1.0,75,0.00,,,0.00,Wunderground v.1.15,2013-12-20 00:09:00,
2013-12-19 19:23:00,51.4,43.7,30.26,SSE,150,0.0,0.0,75,0.00,,,0.00,Wunderground v.1.15,2013-12-20 00:23:00,
2013-12-19 19:34:00,51.1,43.8,30.26,SSE,150,0.0,0.0,76,0.00,,,0.00,Wunderground v.1.15,2013-12-20 00:34:00,
2013-12-19 19:49:00,50.9,44.6,30.26,SSE,152,2.0,2.0,79,0.00,,,0.00,Wunderground v.1.15,2013-12-20 00:49:00,
2013-12-19 20:04:00,50.5,44.9,30.26,SSE,165,2.0,2.0,81,0.00,,,0.00,Wunderground v.1.15,2013-12-20 01:04:00,
2013-12-19 20:18:00,50.5,45.2,30.26,SSE,163,2.0,4.0,82,0.00,,,0.00,Wunderground v.1.15,2013-12-20 01:18:00,
2013-12-19 20:33:00,50.6,45.6,30.27,SSE,161,1.0,1.0,83,0.00,,,0.00,Wunderground v.1.15,2013-12-20 01:33:00,
2013-12-19 20:44:00,50.3,45.3,30.26,SSE,161,1.0,2.0,83,0.00,,,0.00,Wunderground v.1.15,2013-12-20 01:44:00,
2013-12-19 20:59:00,50.1,45.1,30.26,SE,142,1.0,2.0,83,0.00,,,0.00,Wunderground v.1.15,2013-12-20 01:59:00,
2013-12-19 21:14:00,49.9,45.3,30.26,SE,142,1.0,2.0,84,0.00,,,0.00,Wunderground v.1.15,2013-12-20 02:14:00,
2013-12-19 21:28:00,49.7,45.4,30.26,SE,142,1.0,1.0,85,0.00,,,0.00,Wunderground v.1.15,2013-12-20 02:28:00,
2013-12-19 21:43:00,49.5,45.5,30.26,SE,142,1.0,1.0,86,0.00,,,0.00,Wunderground v.1.15,2013-12-20 02:43:00,
2013-12-19 21:54:00,49.4,45.4,30.25,SE,142,0.0,0.0,86,0.00,,,0.00,Wunderground v.1.15,2013-12-20 02:54:00,
2013-12-19 22:09:00,48.8,45.1,30.25,SE,142,0.0,0.0,87,0.00,,,0.00,Wunderground v.1.15,2013-12-20 03:09:00,
2013-12-19 22:24:00,48.6,44.9,30.25,SE,142,0.0,0.0,87,0.00,,,0.00,Wunderground v.1.15,2013-12-20 03:24:00,
2013-12-19 22:39:00,48.3,44.6,30.25,SE,142,0.0,0.0,87,0.00,,,0.00,Wunderground v.1.15,2013-12-20 03:39:00,
2013-12-19 22:53:00,48.0,44.6,30.25,SE,142,0.0,0.0,88,0.00,,,0.00,Wunderground v.1.15,2013-12-20 03:53:00,
2013-12-19 23:08:00,47.8,44.4,30.24,SE,142,0.0,0.0,88,0.00,,,0.00,Wunderground v.1.15,2013-12-20 04:08:00,
2013-12-19 23:19:00,47.5,44.4,30.24,SE,142,0.0,0.0,89,0.00,,,0.00,Wunderground v.1.15,2013-12-20 04:19:00,
2013-12-19 23:34:00,47.2,44.1,30.24,SE,142,0.0,0.0,89,0.00,,,0.00,Wunderground v.1.15,2013-12-20 04:34:00,
2013-12-19 23:48:00,47.0,44.2,30.23,SE,142,0.0,0.0,90,0.00,,,0.00,Wunderground v.1.15,2013-12-20 04:48:00,